sensor_id;sensor_type;location;lat;lon;timestamp;pressure;altitude;pressure_sealevel;temperature;humidity
56414;BME280;42318;48.452;19.526;2024-02-26T00:00:02;97493.31;;;21.84;55.63
56414;BME280;42318;48.452;19.526;2024-02-26T00:03:04;97504.16;;;21.89;55.34
56414;BME280;42318;48.452;19.526;2024-02-26T00:06:05;97500.59;;;21.89;55.41
56414;BME280;42318;48.452;19.526;2024-02-26T00:09:07;97500.38;;;21.85;55.70
56414;BME280;42318;48.452;19.526;2024-02-26T00:12:07;97492.50;;;21.84;55.55
56414;BME280;42318;48.452;19.526;2024-02-26T00:15:09;97502.22;;;21.90;55.60
56414;BME280;42318;48.452;19.526;2024-02-26T00:18:10;97490.50;;;21.89;55.35
56414;BME280;42318;48.452;19.526;2024-02-26T00:21:11;97494.13;;;21.85;55.31
56414;BME280;42318;48.452;19.526;2024-02-26T00:24:12;97500.59;;;21.89;55.63
56414;BME280;42318;48.452;19.526;2024-02-26T00:27:12;97498.97;;;21.88;55.34
56414;BME280;42318;48.452;19.526;2024-02-26T00:30:13;97498.69;;;21.89;55.63
56414;BME280;42318;48.452;19.526;2024-02-26T00:33:16;97492.13;;;21.90;55.41
56414;BME280;42318;48.452;19.526;2024-02-26T00:36:17;97489.75;;;21.84;55.39
56414;BME280;42318;48.452;19.526;2024-02-26T00:39:19;97493.53;;;21.88;55.61
56414;BME280;42318;48.452;19.526;2024-02-26T00:42:19;97496.78;;;21.90;55.55
56414;BME280;42318;48.452;19.526;2024-02-26T00:45:20;97484.25;;;21.89;55.51
56414;BME280;42318;48.452;19.526;2024-02-26T00:48:21;97493.25;;;21.89;55.72
56414;BME280;42318;48.452;19.526;2024-02-26T00:51:21;97491.63;;;21.88;55.36
56414;BME280;42318;48.452;19.526;2024-02-26T00:54:22;97489.69;;;21.89;55.43
56414;BME280;42318;48.452;19.526;2024-02-26T00:57:23;97488.88;;;21.88;55.65
56414;BME280;42318;48.452;19.526;2024-02-26T01:00:23;97495.44;;;21.87;55.72
56414;BME280;42318;48.452;19.526;2024-02-26T01:03:24;97487.56;;;21.86;55.49
56414;BME280;42318;48.452;19.526;2024-02-26T01:06:24;97498.19;;;21.87;55.38
56414;BME280;42318;48.452;19.526;2024-02-26T01:09:25;97492.44;;;21.89;55.71
56414;BME280;42318;48.452;19.526;2024-02-26T01:12:26;97486.53;;;21.82;55.28
56414;BME280;42318;48.452;19.526;2024-02-26T01:15:27;97487.63;;;21.81;55.28
56414;BME280;42318;48.452;19.526;2024-02-26T01:18:27;97481.81;;;21.87;55.80
56414;BME280;42318;48.452;19.526;2024-02-26T01:21:28;97483.72;;;21.87;55.69
56414;BME280;42318;48.452;19.526;2024-02-26T01:24:30;97486.16;;;21.88;55.46
56414;BME280;42318;48.452;19.526;2024-02-26T01:27:31;97476.34;;;21.87;55.45
56414;BME280;42318;48.452;19.526;2024-02-26T01:30:31;97478.78;;;21.89;55.50
56414;BME280;42318;48.452;19.526;2024-02-26T01:33:32;97482.63;;;21.88;55.52
56414;BME280;42318;48.452;19.526;2024-02-26T01:36:32;97481.53;;;21.89;55.36
56414;BME280;42318;48.452;19.526;2024-02-26T01:39:35;97477.16;;;21.88;55.64
56414;BME280;42318;48.452;19.526;2024-02-26T01:42:38;97472.53;;;21.88;55.48
56414;BME280;42318;48.452;19.526;2024-02-26T01:45:39;97478.78;;;21.89;55.62
56414;BME280;42318;48.452;19.526;2024-02-26T01:48:44;97473.63;;;21.87;55.63
56414;BME280;42318;48.452;19.526;2024-02-26T01:51:46;97471.72;;;21.88;55.43
56414;BME280;42318;48.452;19.526;2024-02-26T01:54:46;97466.25;;;21.88;55.16
56414;BME280;42318;48.452;19.526;2024-02-26T01:57:48;97449.91;;;21.88;55.44
56414;BME280;42318;48.452;19.526;2024-02-26T02:00:49;97455.66;;;21.86;55.36
56414;BME280;42318;48.452;19.526;2024-02-26T02:03:50;97454.53;;;21.87;55.48
56414;BME280;42318;48.452;19.526;2024-02-26T02:06:51;97460.81;;;21.88;55.41
56414;BME280;42318;48.452;19.526;2024-02-26T02:09:53;97459.19;;;21.87;55.25
56414;BME280;42318;48.452;19.526;2024-02-26T02:12:53;97465.75;;;21.86;55.20
56414;BME280;42318;48.452;19.526;2024-02-26T02:15:54;97465.44;;;21.87;55.24
56414;BME280;42318;48.452;19.526;2024-02-26T02:18:55;97462.72;;;21.87;55.59
56414;BME280;42318;48.452;19.526;2024-02-26T02:21:56;97473.34;;;21.89;55.36
56414;BME280;42318;48.452;19.526;2024-02-26T02:24:56;97477.16;;;21.88;55.49
56414;BME280;42318;48.452;19.526;2024-02-26T02:27:57;97470.59;;;21.89;55.47
56414;BME280;42318;48.452;19.526;2024-02-26T02:30:58;97469.81;;;21.88;55.47
56414;BME280;42318;48.452;19.526;2024-02-26T02:33:59;97478.78;;;21.89;55.61
56414;BME280;42318;48.452;19.526;2024-02-26T02:36:59;97473.34;;;21.89;55.36
56414;BME280;42318;48.452;19.526;2024-02-26T02:40:00;97461.63;;;21.88;55.44
56414;BME280;42318;48.452;19.526;2024-02-26T02:43:01;97467.06;;;21.88;55.55
56414;BME280;42318;48.452;19.526;2024-02-26T02:46:02;97473.34;;;21.89;55.14
56414;BME280;42318;48.452;19.526;2024-02-26T02:49:03;97458.88;;;21.88;55.44
56414;BME280;42318;48.452;19.526;2024-02-26T02:52:04;97459.69;;;21.89;55.24
56414;BME280;42318;48.452;19.526;2024-02-26T02:55:05;97456.97;;;21.89;55.62
56414;BME280;42318;48.452;19.526;2024-02-26T02:58:06;97461.09;;;21.86;55.20
56414;BME280;42318;48.452;19.526;2024-02-26T03:01:06;97455.34;;;21.88;55.21
56414;BME280;42318;48.452;19.526;2024-02-26T03:04:07;97465.22;;;21.84;55.19
56414;BME280;42318;48.452;19.526;2024-02-26T03:07:08;97461.91;;;21.87;55.70
56414;BME280;42318;48.452;19.526;2024-02-26T03:10:09;97466.25;;;21.88;55.41
56414;BME280;42318;48.452;19.526;2024-02-26T03:13:09;97450.72;;;21.88;55.18
56414;BME280;42318;48.452;19.526;2024-02-26T03:16:10;97445.31;;;21.83;55.22
56414;BME280;42318;48.452;19.526;2024-02-26T03:19:14;97444.44;;;21.88;55.20
56414;BME280;42318;48.452;19.526;2024-02-26T03:22:15;97444.44;;;21.88;55.40
56414;BME280;42318;48.452;19.526;2024-02-26T03:25:15;97442.53;;;21.88;55.21
56414;BME280;42318;48.452;19.526;2024-02-26T03:28:16;97449.91;;;21.88;55.56
56414;BME280;42318;48.452;19.526;2024-02-26T03:31:16;97441.72;;;21.88;55.49
56414;BME280;42318;48.452;19.526;2024-02-26T03:34:17;97434.13;;;21.85;55.58
56414;BME280;42318;48.452;19.526;2024-02-26T03:37:18;97437.88;;;21.89;55.48
56414;BME280;42318;48.452;19.526;2024-02-26T03:40:19;97433.53;;;21.88;55.29
56414;BME280;42318;48.452;19.526;2024-02-26T03:43:20;97416.44;;;21.82;55.34
56414;BME280;42318;48.452;19.526;2024-02-26T03:46:20;97426.97;;;21.89;55.58
56414;BME280;42318;48.452;19.526;2024-02-26T03:49:21;97431.31;;;21.90;55.65
56414;BME280;42318;48.452;19.526;2024-02-26T03:52:22;97435.97;;;21.89;55.63
56414;BME280;42318;48.452;19.526;2024-02-26T03:55:23;97418.78;;;21.89;55.39
56414;BME280;42318;48.452;19.526;2024-02-26T03:58:25;97424.03;;;21.85;55.72
56414;BME280;42318;48.452;19.526;2024-02-26T04:01:26;97433.53;;;21.88;55.26
56414;BME280;42318;48.452;19.526;2024-02-26T04:04:26;97425.34;;;21.88;55.21
56414;BME280;42318;48.452;19.526;2024-02-26T04:07:27;97426.16;;;21.88;55.22
56414;BME280;42318;48.452;19.526;2024-02-26T04:10:28;97428.09;;;21.88;55.43
56414;BME280;42318;48.452;19.526;2024-02-26T04:13:28;97424.25;;;21.89;55.22
56414;BME280;42318;48.452;19.526;2024-02-26T04:16:29;97430.50;;;21.89;55.32
56414;BME280;42318;48.452;19.526;2024-02-26T04:19:29;97427.50;;;21.91;55.54
56414;BME280;42318;48.452;19.526;2024-02-26T04:22:30;97427.78;;;21.89;55.64
56414;BME280;42318;48.452;19.526;2024-02-26T04:25:32;97427.28;;;21.87;55.28
56414;BME280;42318;48.452;19.526;2024-02-26T04:28:33;97431.31;;;21.90;55.51
56414;BME280;42318;48.452;19.526;2024-02-26T04:31:33;97424.25;;;21.89;55.54
56414;BME280;42318;48.452;19.526;2024-02-26T04:34:34;97431.03;;;21.91;55.29
56414;BME280;42318;48.452;19.526;2024-02-26T04:37:34;97432.44;;;21.89;55.43
56414;BME280;42318;48.452;19.526;2024-02-26T04:40:35;97415.09;;;21.80;55.30
56414;BME280;42318;48.452;19.526;2024-02-26T04:43:36;97423.97;;;21.90;55.27
56414;BME280;42318;48.452;19.526;2024-02-26T04:46:42;97423.16;;;21.90;55.51
56414;BME280;42318;48.452;19.526;2024-02-26T04:49:42;97428.59;;;21.90;55.54
56414;BME280;42318;48.452;19.526;2024-02-26T04:52:43;97427.50;;;21.91;55.90
56414;BME280;42318;48.452;19.526;2024-02-26T04:55:43;97427.50;;;21.91;55.46
56414;BME280;42318;48.452;19.526;2024-02-26T04:58:44;97432.94;;;21.91;55.30
56414;BME280;42318;48.452;19.526;2024-02-26T05:01:46;97427.50;;;21.91;55.28
56414;BME280;42318;48.452;19.526;2024-02-26T05:04:47;97421.22;;;21.90;55.31
56414;BME280;42318;48.452;19.526;2024-02-26T05:07:47;97425.88;;;21.90;55.63
56414;BME280;42318;48.452;19.526;2024-02-26T05:10:48;97432.13;;;21.90;55.69
56414;BME280;42318;48.452;19.526;2024-02-26T05:13:49;97433.53;;;21.88;55.26
56414;BME280;42318;48.452;19.526;2024-02-26T05:16:49;97439.50;;;21.90;55.40
56414;BME280;42318;48.452;19.526;2024-02-26T05:19:50;97430.28;;;21.86;55.65
56414;BME280;42318;48.452;19.526;2024-02-26T05:22:51;97447.41;;;21.91;55.19
56414;BME280;42318;48.452;19.526;2024-02-26T05:25:52;97442.22;;;21.90;55.43
56414;BME280;42318;48.452;19.526;2024-02-26T05:28:52;97444.16;;;21.89;55.61
56414;BME280;42318;48.452;19.526;2024-02-26T05:31:53;97443.84;;;21.91;55.42
56414;BME280;42318;48.452;19.526;2024-02-26T05:34:54;97452.03;;;21.91;55.27
56414;BME280;42318;48.452;19.526;2024-02-26T05:37:55;97445.78;;;21.90;55.24
56414;BME280;42318;48.452;19.526;2024-02-26T05:40:56;97441.72;;;21.88;55.41
56414;BME280;42318;48.452;19.526;2024-02-26T05:43:56;97431.41;;;21.85;55.33
56414;BME280;42318;48.452;19.526;2024-02-26T05:46:57;97443.84;;;21.91;55.17
56414;BME280;42318;48.452;19.526;2024-02-26T05:49:57;97452.03;;;21.91;55.42
56414;BME280;42318;48.452;19.526;2024-02-26T05:53:00;97437.94;;;21.84;55.38
56414;BME280;42318;48.452;19.526;2024-02-26T05:56:00;97442.22;;;21.90;55.21
56414;BME280;42318;48.452;19.526;2024-02-26T05:59:01;97440.59;;;21.89;55.35
56414;BME280;42318;48.452;19.526;2024-02-26T06:02:02;97441.44;;;21.89;55.30
56414;BME280;42318;48.452;19.526;2024-02-26T06:05:03;97441.44;;;21.89;55.01
56414;BME280;42318;48.452;19.526;2024-02-26T06:08:04;97441.13;;;21.91;55.42
56414;BME280;42318;48.452;19.526;2024-02-26T06:11:06;97447.69;;;21.90;55.19
56414;BME280;42318;48.452;19.526;2024-02-26T06:14:07;97439.88;;;21.83;55.11
56414;BME280;42318;48.452;19.526;2024-02-26T06:17:08;97459.41;;;21.90;55.41
56414;BME280;42318;48.452;19.526;2024-02-26T06:20:09;97458.06;;;21.88;55.01
56414;BME280;42318;48.452;19.526;2024-02-26T06:23:13;97453.13;;;21.90;55.22
56414;BME280;42318;48.452;19.526;2024-02-26T06:26:13;97454.03;;;21.85;55.17
56414;BME280;42318;48.452;19.526;2024-02-26T06:29:14;97466.03;;;21.84;55.38
56414;BME280;42318;48.452;19.526;2024-02-26T06:32:15;97455.13;;;21.84;55.40
56414;BME280;42318;48.452;19.526;2024-02-26T06:35:16;97473.84;;;21.91;54.97
56414;BME280;42318;48.452;19.526;2024-02-26T06:38:16;97476.59;;;21.91;55.30
56414;BME280;42318;48.452;19.526;2024-02-26T06:41:18;97477.41;;;21.91;55.17
56414;BME280;42318;48.452;19.526;2024-02-26T06:44:18;97461.47;;;21.80;55.04
56414;BME280;42318;48.452;19.526;2024-02-26T06:47:19;97480.41;;;21.90;54.85
56414;BME280;42318;48.452;19.526;2024-02-26T06:50:20;97482.03;;;21.91;54.92
56414;BME280;42318;48.452;19.526;2024-02-26T06:53:21;97479.59;;;21.89;55.14
56414;BME280;42318;48.452;19.526;2024-02-26T06:56:21;97485.88;;;21.90;54.99
56414;BME280;42318;48.452;19.526;2024-02-26T06:59:22;97487.50;;;21.91;55.35
56414;BME280;42318;48.452;19.526;2024-02-26T07:02:24;97481.53;;;21.89;55.01
56414;BME280;42318;48.452;19.526;2024-02-26T07:05:24;97481.53;;;21.89;55.29
56414;BME280;42318;48.452;19.526;2024-02-26T07:08:25;97486.16;;;21.88;54.79
56414;BME280;42318;48.452;19.526;2024-02-26T07:11:26;97482.09;;;21.86;55.25
56414;BME280;42318;48.452;19.526;2024-02-26T07:14:26;97487.25;;;21.87;54.91
56414;BME280;42318;48.452;19.526;2024-02-26T07:17:27;97488.06;;;21.88;54.96
56414;BME280;42318;48.452;19.526;2024-02-26T07:20:27;97478.34;;;21.82;54.91
56414;BME280;42318;48.452;19.526;2024-02-26T07:23:28;97491.63;;;21.88;54.92
56414;BME280;42318;48.452;19.526;2024-02-26T07:26:29;97498.19;;;21.87;54.74
56414;BME280;42318;48.452;19.526;2024-02-26T07:29:31;97494.63;;;21.87;54.99
56414;BME280;42318;48.452;19.526;2024-02-26T07:32:31;97496.56;;;21.86;54.68
56414;BME280;42318;48.452;19.526;2024-02-26T07:35:32;97488.38;;;21.86;54.79
56414;BME280;42318;48.452;19.526;2024-02-26T07:38:33;97489.19;;;21.87;54.84
56414;BME280;42318;48.452;19.526;2024-02-26T07:41:34;97494.63;;;21.87;54.87
56414;BME280;42318;48.452;19.526;2024-02-26T07:44:35;97492.72;;;21.87;54.69
56414;BME280;42318;48.452;19.526;2024-02-26T07:47:35;97486.81;;;21.80;54.47
56414;BME280;42318;48.452;19.526;2024-02-26T07:50:38;97486.81;;;21.80;54.91
56414;BME280;42318;48.452;19.526;2024-02-26T07:53:38;97495.75;;;21.86;54.57
56414;BME280;42318;48.452;19.526;2024-02-26T07:56:39;97491.91;;;21.87;54.47
56414;BME280;42318;48.452;19.526;2024-02-26T07:59:40;97478.56;;;21.85;54.36
56414;BME280;42318;48.452;19.526;2024-02-26T08:02:40;97485.63;;;21.86;54.28
56414;BME280;42318;48.452;19.526;2024-02-26T08:05:42;97489.47;;;21.85;54.30
56414;BME280;42318;48.452;19.526;2024-02-26T08:08:43;97488.66;;;21.85;54.47
56414;BME280;42318;48.452;19.526;2024-02-26T08:11:44;97488.66;;;21.85;54.55
56414;BME280;42318;48.452;19.526;2024-02-26T08:14:45;97485.41;;;21.83;54.69
56414;BME280;42318;48.452;19.526;2024-02-26T08:17:45;97480.78;;;21.83;54.52
56414;BME280;42318;48.452;19.526;2024-02-26T08:20:47;97487.03;;;21.84;54.63
56414;BME280;42318;48.452;19.526;2024-02-26T08:23:49;97489.25;;;21.82;54.52
56414;BME280;42318;48.452;19.526;2024-02-26T08:26:50;97490.06;;;21.82;54.24
56414;BME280;42318;48.452;19.526;2024-02-26T08:29:50;97497.44;;;21.82;54.29
56414;BME280;42318;48.452;19.526;2024-02-26T08:32:51;97499.94;;;21.78;54.27
56414;BME280;42318;48.452;19.526;2024-02-26T08:35:53;97517.31;;;21.82;54.19
56414;BME280;42318;48.452;19.526;2024-02-26T08:38:53;97515.41;;;21.83;54.52
56414;BME280;42318;48.452;19.526;2024-02-26T08:41:54;97502.88;;;21.82;54.33
56414;BME280;42318;48.452;19.526;2024-02-26T08:44:54;97511.06;;;21.82;53.97
56414;BME280;42318;48.452;19.526;2024-02-26T08:47:55;97503.75;;;21.77;54.43
56414;BME280;42318;48.452;19.526;2024-02-26T08:50:56;97495.63;;;21.72;54.20
56414;BME280;42318;48.452;19.526;2024-02-26T08:53:57;97510.25;;;21.81;54.14
56414;BME280;42318;48.452;19.526;2024-02-26T08:56:57;97516.50;;;21.82;54.00
56414;BME280;42318;48.452;19.526;2024-02-26T08:59:58;97513.78;;;21.82;54.01
56414;BME280;42318;48.452;19.526;2024-02-26T09:02:58;97508.41;;;21.77;54.52
56414;BME280;42318;48.452;19.526;2024-02-26T09:06:00;97517.31;;;21.82;54.10
56414;BME280;42318;48.452;19.526;2024-02-26T09:09:00;97517.03;;;21.84;54.28
56414;BME280;42318;48.452;19.526;2024-02-26T09:12:02;97523.06;;;21.81;54.46
56414;BME280;42318;48.452;19.526;2024-02-26T09:15:02;97525.22;;;21.84;54.67
56414;BME280;42318;48.452;19.526;2024-02-26T09:18:03;97525.22;;;21.84;54.65
56414;BME280;42318;48.452;19.526;2024-02-26T09:21:05;97507.59;;;21.76;54.59
56414;BME280;42318;48.452;19.526;2024-02-26T09:24:06;97518.94;;;21.83;54.54
56414;BME280;42318;48.452;19.526;2024-02-26T09:27:07;97503.53;;;21.74;54.25
56414;BME280;42318;48.452;19.526;2024-02-26T09:30:08;97527.94;;;21.84;54.45
56414;BME280;42318;48.452;19.526;2024-02-26T09:33:09;97529.03;;;21.83;54.61
56414;BME280;42318;48.452;19.526;2024-02-26T09:36:10;97523.59;;;21.83;54.33
56414;BME280;42318;48.452;19.526;2024-02-26T09:39:11;97532.59;;;21.83;54.29
56414;BME280;42318;48.452;19.526;2024-02-26T09:42:13;97535.03;;;21.85;54.37
56414;BME280;42318;48.452;19.526;2024-02-26T09:45:21;97532.28;;;21.85;54.46
56414;BME280;42318;48.452;19.526;2024-02-26T09:48:23;97529.56;;;21.85;54.37
56414;BME280;42318;48.452;19.526;2024-02-26T09:51:24;97531.47;;;21.84;54.31
56414;BME280;42318;48.452;19.526;2024-02-26T09:54:26;97531.47;;;21.84;54.51
56414;BME280;42318;48.452;19.526;2024-02-26T09:57:29;97534.50;;;21.83;54.34
56414;BME280;42318;48.452;19.526;2024-02-26T10:00:30;97521.97;;;21.82;54.53
56414;BME280;42318;48.452;19.526;2024-02-26T10:03:39;97525.22;;;21.84;54.59
56414;BME280;42318;48.452;19.526;2024-02-26T10:06:42;97528.75;;;21.84;54.76
56414;BME280;42318;48.452;19.526;2024-02-26T10:09:44;97522.19;;;21.85;54.61
56414;BME280;42318;48.452;19.526;2024-02-26T10:12:45;97517.03;;;21.84;54.82
56414;BME280;42318;48.452;19.526;2024-02-26T10:15:46;97520.56;;;21.84;54.74
56414;BME280;42318;48.452;19.526;2024-02-26T10:18:51;97524.94;;;21.85;54.60
56414;BME280;42318;48.452;19.526;2024-02-26T10:21:59;97526.84;;;21.85;54.66
56414;BME280;42318;48.452;19.526;2024-02-26T10:25:01;97490.78;;;21.64;54.56
56414;BME280;42318;48.452;19.526;2024-02-26T10:28:01;97520.56;;;21.84;54.33
56414;BME280;42318;48.452;19.526;2024-02-26T10:31:06;97524.41;;;21.83;54.52
56414;BME280;42318;48.452;19.526;2024-02-26T10:34:07;97518.13;;;21.83;54.88
56414;BME280;42318;48.452;19.526;2024-02-26T10:37:08;97520.56;;;21.84;54.86
56414;BME280;42318;48.452;19.526;2024-02-26T10:40:13;97526.03;;;21.84;54.67
56414;BME280;42318;48.452;19.526;2024-02-26T10:43:14;97518.94;;;21.83;54.80
56414;BME280;42318;48.452;19.526;2024-02-26T10:46:16;97505.16;;;21.75;54.48
56414;BME280;42318;48.452;19.526;2024-02-26T10:49:17;97529.28;;;21.86;54.73
56414;BME280;42318;48.452;19.526;2024-02-26T10:52:20;97521.38;;;21.85;54.83
56414;BME280;42318;48.452;19.526;2024-02-26T10:55:22;97513.25;;;21.80;54.66
56414;BME280;42318;48.452;19.526;2024-02-26T10:58:23;97520.81;;;21.88;55.05
56414;BME280;42318;48.452;19.526;2024-02-26T11:01:26;97527.88;;;21.89;55.06
56414;BME280;42318;48.452;19.526;2024-02-26T11:04:30;97505.09;;;21.80;55.15
56414;BME280;42318;48.452;19.526;2024-02-26T11:07:31;97523.22;;;21.89;55.46
56414;BME280;42318;48.452;19.526;2024-02-26T11:10:32;97516.38;;;21.92;55.55
56414;BME280;42318;48.452;19.526;2024-02-26T11:13:33;97516.38;;;21.92;55.81
56414;BME280;42318;48.452;19.526;2024-02-26T11:16:35;97510.94;;;21.92;55.34
56414;BME280;42318;48.452;19.526;2024-02-26T11:19:37;97514.25;;;21.89;55.77
56414;BME280;42318;48.452;19.526;2024-02-26T11:22:38;97519.19;;;21.87;55.41
56414;BME280;42318;48.452;19.526;2024-02-26T11:25:39;97512.03;;;21.91;55.90
56414;BME280;42318;48.452;19.526;2024-02-26T11:28:40;97512.03;;;21.91;55.48
56414;BME280;42318;48.452;19.526;2024-02-26T11:31:42;97501.19;;;21.86;55.93
56414;BME280;42318;48.452;19.526;2024-02-26T11:34:43;97508.19;;;21.92;55.95
56414;BME280;42318;48.452;19.526;2024-02-26T11:37:52;97507.41;;;21.91;55.53
56414;BME280;42318;48.452;19.526;2024-02-26T11:40:54;97502.22;;;21.90;55.60
56414;BME280;42318;48.452;19.526;2024-02-26T11:44:00;97510.13;;;21.91;55.80
56414;BME280;42318;48.452;19.526;2024-02-26T11:47:34;97506.00;;;21.94;55.73
56414;BME280;42318;48.452;19.526;2024-02-26T11:50:36;97511.75;;;21.92;56.07
56414;BME280;42318;48.452;19.526;2024-02-26T11:53:46;97512.56;;;21.93;55.96
56414;BME280;42318;48.452;19.526;2024-02-26T11:56:50;97503.56;;;21.92;55.80
56414;BME280;42318;48.452;19.526;2024-02-26T11:59:50;97509.81;;;21.93;55.89
56414;BME280;42318;48.452;19.526;2024-02-26T12:02:52;97505.19;;;21.93;55.96
56414;BME280;42318;48.452;19.526;2024-02-26T12:05:59;97506.00;;;21.94;55.90
56414;BME280;42318;48.452;19.526;2024-02-26T12:09:01;97502.47;;;21.93;55.81
56414;BME280;42318;48.452;19.526;2024-02-26T12:12:03;97502.16;;;21.95;55.92
56414;BME280;42318;48.452;19.526;2024-02-26T12:15:05;97502.97;;;21.95;55.57
56414;BME280;42318;48.452;19.526;2024-02-26T12:18:10;97499.44;;;21.95;55.91
56414;BME280;42318;48.452;19.526;2024-02-26T12:21:11;97494.56;;;21.92;55.45
56414;BME280;42318;48.452;19.526;2024-02-26T12:24:14;97495.09;;;21.94;55.68
56414;BME280;42318;48.452;19.526;2024-02-26T12:27:16;97496.19;;;21.93;55.87
56414;BME280;42318;48.452;19.526;2024-02-26T12:30:17;97499.44;;;21.95;55.58
56414;BME280;42318;48.452;19.526;2024-02-26T12:33:18;97488.06;;;21.88;55.75
56414;BME280;42318;48.452;19.526;2024-02-26T12:36:19;97489.63;;;21.94;55.49
56414;BME280;42318;48.452;19.526;2024-02-26T12:39:21;97478.22;;;21.92;55.70
56414;BME280;42318;48.452;19.526;2024-02-26T12:42:22;97474.44;;;21.88;55.61
56414;BME280;42318;48.452;19.526;2024-02-26T12:45:22;97477.91;;;21.93;55.82
56414;BME280;42318;48.452;19.526;2024-02-26T12:48:23;97481.44;;;21.94;55.28
56414;BME280;42318;48.452;19.526;2024-02-26T12:51:25;97484.19;;;21.94;55.35
56414;BME280;42318;48.452;19.526;2024-02-26T12:54:33;97489.63;;;21.94;55.71
56414;BME280;42318;48.452;19.526;2024-02-26T12:57:37;97493.97;;;21.95;55.67
56414;BME280;42318;48.452;19.526;2024-02-26T13:00:38;97487.72;;;21.94;55.70
56414;BME280;42318;48.452;19.526;2024-02-26T13:03:39;97493.97;;;21.95;55.57
56414;BME280;42318;48.452;19.526;2024-02-26T13:06:40;97495.59;;;21.96;55.42
56414;BME280;42318;48.452;19.526;2024-02-26T13:09:40;97490.16;;;21.96;55.55
56414;BME280;42318;48.452;19.526;2024-02-26T13:12:46;97490.16;;;21.96;55.27
56414;BME280;42318;48.452;19.526;2024-02-26T13:15:47;97494.78;;;21.95;55.29
56414;BME280;42318;48.452;19.526;2024-02-26T13:18:47;97492.44;;;21.89;55.44
56414;BME280;42318;48.452;19.526;2024-02-26T13:21:48;97499.44;;;21.95;55.46
56414;BME280;42318;48.452;19.526;2024-02-26T13:24:59;97506.50;;;21.96;55.31
56414;BME280;42318;48.452;19.526;2024-02-26T13:31:14;97499.44;;;21.95;55.59
56414;BME280;42318;48.452;19.526;2024-02-26T13:34:28;97501.06;;;21.96;55.44
56414;BME280;42318;48.452;19.526;2024-02-26T13:37:30;97508.44;;;21.95;55.49
56414;BME280;42318;48.452;19.526;2024-02-26T13:40:31;97506.50;;;21.96;55.27
56414;BME280;42318;48.452;19.526;2024-02-26T13:43:32;97507.63;;;21.95;55.08
56414;BME280;42318;48.452;19.526;2024-02-26T13:46:32;97511.16;;;21.95;55.08
56414;BME280;42318;48.452;19.526;2024-02-26T13:49:33;97513.59;;;21.97;55.43
56414;BME280;42318;48.452;19.526;2024-02-26T13:52:34;97519.84;;;21.98;55.48
56414;BME280;42318;48.452;19.526;2024-02-26T13:55:35;97515.22;;;21.98;55.47
56414;BME280;42318;48.452;19.526;2024-02-26T13:58:36;97511.97;;;21.96;55.25
56414;BME280;42318;48.452;19.526;2024-02-26T14:01:37;97500.31;;;21.90;55.64
56414;BME280;42318;48.452;19.526;2024-02-26T14:04:39;97510.06;;;21.97;55.58
56414;BME280;42318;48.452;19.526;2024-02-26T14:07:39;97513.59;;;21.97;55.46
56414;BME280;42318;48.452;19.526;2024-02-26T14:10:40;97496.78;;;21.90;55.29
56414;BME280;42318;48.452;19.526;2024-02-26T14:13:41;97516.31;;;21.97;55.38
56414;BME280;42318;48.452;19.526;2024-02-26T14:16:41;97514.13;;;21.99;55.50
56414;BME280;42318;48.452;19.526;2024-02-26T14:19:42;97513.31;;;21.99;55.28
56414;BME280;42318;48.452;19.526;2024-02-26T14:22:45;97521.47;;;21.99;55.19
56414;BME280;42318;48.452;19.526;2024-02-26T14:25:46;97515.00;;;21.94;55.57
56414;BME280;42318;48.452;19.526;2024-02-26T14:28:46;97512.50;;;21.98;55.51
56414;BME280;42318;48.452;19.526;2024-02-26T14:31:47;97516.84;;;21.99;55.45
56414;BME280;42318;48.452;19.526;2024-02-26T14:34:48;97516.84;;;21.99;55.32
56414;BME280;42318;48.452;19.526;2024-02-26T14:37:49;97518.47;;;22.00;55.61
56414;BME280;42318;48.452;19.526;2024-02-26T14:40:50;97514.13;;;21.99;55.22
56414;BME280;42318;48.452;19.526;2024-02-26T14:43:51;97512.72;;;22.02;55.39
56414;BME280;42318;48.452;19.526;2024-02-26T14:46:53;97523.38;;;22.03;55.52
56414;BME280;42318;48.452;19.526;2024-02-26T14:49:54;97520.63;;;22.03;55.23
56414;BME280;42318;48.452;19.526;2024-02-26T14:52:55;97520.91;;;22.02;55.52
56414;BME280;42318;48.452;19.526;2024-02-26T14:55:56;97516.25;;;22.02;55.63
56414;BME280;42318;48.452;19.526;2024-02-26T14:58:57;97511.09;;;22.01;55.25
56414;BME280;42318;48.452;19.526;2024-02-26T15:01:58;97505.63;;;22.01;55.25
56414;BME280;42318;48.452;19.526;2024-02-26T15:05:03;97516.25;;;22.02;55.55
56414;BME280;42318;48.452;19.526;2024-02-26T15:08:04;97504.59;;;21.97;55.26
56414;BME280;42318;48.452;19.526;2024-02-26T15:11:09;97498.41;;;21.91;55.63
56414;BME280;42318;48.452;19.526;2024-02-26T15:14:10;97512.44;;;22.03;55.32
56414;BME280;42318;48.452;19.526;2024-02-26T15:17:11;97519.53;;;22.04;55.44
56414;BME280;42318;48.452;19.526;2024-02-26T15:20:13;97505.72;;;21.95;55.22
56414;BME280;42318;48.452;19.526;2024-02-26T15:23:14;97519.78;;;22.03;55.59
56414;BME280;42318;48.452;19.526;2024-02-26T15:26:17;97515.19;;;22.03;55.16
56414;BME280;42318;48.452;19.526;2024-02-26T15:29:18;97524.19;;;22.04;55.30
56414;BME280;42318;48.452;19.526;2024-02-26T15:32:19;97511.34;;;22.04;55.54
56414;BME280;42318;48.452;19.526;2024-02-26T15:35:21;97512.44;;;22.03;55.13
56414;BME280;42318;48.452;19.526;2024-02-26T15:38:23;97517.63;;;22.05;55.51
56414;BME280;42318;48.452;19.526;2024-02-26T15:41:24;97514.88;;;22.05;55.56
56414;BME280;42318;48.452;19.526;2024-02-26T15:44:25;97507.56;;;22.00;55.57
56414;BME280;42318;48.452;19.526;2024-02-26T15:47:26;97515.69;;;22.05;55.38
56414;BME280;42318;48.452;19.526;2024-02-26T17:37:24;97616.91;;;22.04;56.07